sensor_id;sensor_type;location;lat;lon;timestamp;pressure;altitude;pressure_sealevel;temperature;humidity
14089;BME280;7120;52.890;6.040;2023-10-31T00:00:12;99417.88;;;10.70;100.00
14089;BME280;7120;52.890;6.040;2023-10-31T00:02:38;99413.22;;;10.70;100.00
14089;BME280;7120;52.890;6.040;2023-10-31T00:05:04;99410.72;;;10.78;100.00
14089;BME280;7120;52.890;6.040;2023-10-31T00:07:29;99423.38;;;10.82;100.00
14089;BME280;7120;52.890;6.040;2023-10-31T00:09:55;99410.41;;;10.79;100.00
14089;BME280;7120;52.890;6.040;2023-10-31T00:12:20;99418.13;;;10.77;100.00
14089;BME280;7120;52.890;6.040;2023-10-31T00:14:45;99417.34;;;10.77;100.00
14089;BME280;7120;52.890;6.040;2023-10-31T00:17:11;99419.63;;;10.75;100.00
14089;BME280;7120;52.890;6.040;2023-10-31T00:19:36;99422.81;;;10.77;100.00
14089;BME280;7120;52.890;6.040;2023-10-31T00:22:02;99419.50;;;10.83;100.00
14089;BME280;7120;52.890;6.040;2023-10-31T00:24:28;99427.47;;;10.76;100.00
14089;BME280;7120;52.890;6.040;2023-10-31T00:26:53;99423.50;;;10.73;100.00
14089;BME280;7120;52.890;6.040;2023-10-31T00:29:19;99431.91;;;10.68;100.00
14089;BME280;7120;52.890;6.040;2023-10-31T00:31:44;99427.38;;;10.72;100.00
14089;BME280;7120;52.890;6.040;2023-10-31T00:34:09;99430.81;;;10.82;100.00
14089;BME280;7120;52.890;6.040;2023-10-31T00:36:35;99431.13;;;10.80;100.00
14089;BME280;7120;52.890;6.040;2023-10-31T00:39:00;99426.81;;;10.79;100.00
14089;BME280;7120;52.890;6.040;2023-10-31T00:41:26;99432.03;;;10.72;100.00
14089;BME280;7120;52.890;6.040;2023-10-31T00:43:51;99434.09;;;10.75;100.00
14089;BME280;7120;52.890;6.040;2023-10-31T00:46:16;99432.09;;;10.63;100.00
14089;BME280;7120;52.890;6.040;2023-10-31T00:48:42;99431.09;;;10.68;100.00
14089;BME280;7120;52.890;6.040;2023-10-31T00:51:07;99429.84;;;10.65;100.00
14089;BME280;7120;52.890;6.040;2023-10-31T00:53:32;99428.13;;;10.61;100.00
14089;BME280;7120;52.890;6.040;2023-10-31T00:55:58;99435.25;;;10.53;100.00
14089;BME280;7120;52.890;6.040;2023-10-31T00:58:23;99444.47;;;10.49;100.00
14089;BME280;7120;52.890;6.040;2023-10-31T01:00:49;99449.94;;;10.49;100.00
14089;BME280;7120;52.890;6.040;2023-10-31T01:03:14;99458.22;;;10.40;100.00
14089;BME280;7120;52.890;6.040;2023-10-31T01:05:39;99461.09;;;10.43;100.00
14089;BME280;7120;52.890;6.040;2023-10-31T01:08:05;99456.19;;;10.49;100.00
14089;BME280;7120;52.890;6.040;2023-10-31T01:10:30;99452.34;;;10.50;100.00
14089;BME280;7120;52.890;6.040;2023-10-31T01:12:56;99451.47;;;10.58;100.00
14089;BME280;7120;52.890;6.040;2023-10-31T01:15:21;99452.03;;;10.64;100.00
14089;BME280;7120;52.890;6.040;2023-10-31T01:17:46;99449.03;;;10.57;100.00
14089;BME280;7120;52.890;6.040;2023-10-31T01:20:12;99447.16;;;10.69;100.00
14089;BME280;7120;52.890;6.040;2023-10-31T01:22:37;99446.81;;;10.71;100.00
14089;BME280;7120;52.890;6.040;2023-10-31T01:25:03;99447.06;;;10.78;100.00
14089;BME280;7120;52.890;6.040;2023-10-31T01:27:28;99451.75;;;10.78;100.00
14089;BME280;7120;52.890;6.040;2023-10-31T01:29:59;99457.09;;;10.74;100.00
14089;BME280;7120;52.890;6.040;2023-10-31T01:32:25;99449.69;;;10.75;100.00
14089;BME280;7120;52.890;6.040;2023-10-31T01:34:50;99449.34;;;10.76;100.00
14089;BME280;7120;52.890;6.040;2023-10-31T01:37:16;99451.19;;;10.84;100.00
14089;BME280;7120;52.890;6.040;2023-10-31T01:39:42;99462.69;;;10.78;100.00
14089;BME280;7120;52.890;6.040;2023-10-31T01:42:07;99457.16;;;10.86;100.00
14089;BME280;7120;52.890;6.040;2023-10-31T01:44:33;99474.25;;;10.95;100.00
14089;BME280;7120;52.890;6.040;2023-10-31T01:46:58;99474.59;;;10.94;100.00
14089;BME280;7120;52.890;6.040;2023-10-31T01:49:23;99475.28;;;11.03;100.00
14089;BME280;7120;52.890;6.040;2023-10-31T01:51:49;99477.13;;;11.11;100.00
14089;BME280;7120;52.890;6.040;2023-10-31T01:54:15;99473.94;;;11.09;100.00
14089;BME280;7120;52.890;6.040;2023-10-31T01:56:41;99480.00;;;11.15;100.00
14089;BME280;7120;52.890;6.040;2023-10-31T01:59:07;99475.56;;;11.22;100.00
14089;BME280;7120;52.890;6.040;2023-10-31T02:01:37;99470.91;;;11.23;100.00
14089;BME280;7120;52.890;6.040;2023-10-31T02:04:03;99479.56;;;11.25;100.00
14089;BME280;7120;52.890;6.040;2023-10-31T02:06:29;99475.13;;;11.33;100.00
14089;BME280;7120;52.890;6.040;2023-10-31T02:08:55;99467.69;;;11.33;100.00
14089;BME280;7120;52.890;6.040;2023-10-31T02:11:21;99474.53;;;11.27;100.00
14089;BME280;7120;52.890;6.040;2023-10-31T02:13:46;99480.25;;;11.22;100.00
14089;BME280;7120;52.890;6.040;2023-10-31T02:16:11;99481.63;;;11.28;100.00
14089;BME280;7120;52.890;6.040;2023-10-31T02:18:37;99477.50;;;11.22;100.00
14089;BME280;7120;52.890;6.040;2023-10-31T02:21:02;99491.19;;;11.22;100.00
14089;BME280;7120;52.890;6.040;2023-10-31T02:23:28;99482.06;;;11.18;100.00
14089;BME280;7120;52.890;6.040;2023-10-31T02:25:53;99483.31;;;11.20;100.00
14089;BME280;7120;52.890;6.040;2023-10-31T02:28:19;99479.41;;;11.09;100.00
14089;BME280;7120;52.890;6.040;2023-10-31T02:30:44;99484.88;;;11.09;100.00
14089;BME280;7120;52.890;6.040;2023-10-31T02:33:09;99478.28;;;11.10;100.00
14089;BME280;7120;52.890;6.040;2023-10-31T02:35:35;99490.81;;;11.11;100.00
14089;BME280;7120;52.890;6.040;2023-10-31T02:38:00;99494.47;;;11.27;100.00
14089;BME280;7120;52.890;6.040;2023-10-31T02:40:25;99494.16;;;11.29;100.00
14089;BME280;7120;52.890;6.040;2023-10-31T02:42:51;99495.88;;;11.34;100.00
14089;BME280;7120;52.890;6.040;2023-10-31T02:45:19;99499.75;;;11.33;100.00
14089;BME280;7120;52.890;6.040;2023-10-31T02:47:44;99502.13;;;11.34;100.00
14089;BME280;7120;52.890;6.040;2023-10-31T02:50:09;99508.44;;;11.35;100.00
14089;BME280;7120;52.890;6.040;2023-10-31T02:52:35;99512.28;;;11.34;100.00
14089;BME280;7120;52.890;6.040;2023-10-31T02:55:01;99518.34;;;11.39;100.00
14089;BME280;7120;52.890;6.040;2023-10-31T02:57:27;99511.63;;;11.37;100.00
14089;BME280;7120;52.890;6.040;2023-10-31T02:59:52;99517.69;;;11.42;100.00
14089;BME280;7120;52.890;6.040;2023-10-31T03:02:18;99516.06;;;11.41;100.00
14089;BME280;7120;52.890;6.040;2023-10-31T03:04:43;99520.63;;;11.37;100.00
14089;BME280;7120;52.890;6.040;2023-10-31T03:07:08;99526.22;;;11.28;100.00
14089;BME280;7120;52.890;6.040;2023-10-31T03:09:34;99535.47;;;11.36;100.00
14089;BME280;7120;52.890;6.040;2023-10-31T03:11:59;99528.59;;;11.30;100.00
14089;BME280;7120;52.890;6.040;2023-10-31T03:14:24;99534.63;;;11.23;100.00
14089;BME280;7120;52.890;6.040;2023-10-31T03:16:50;99540.09;;;11.23;100.00
14089;BME280;7120;52.890;6.040;2023-10-31T03:19:16;99539.41;;;11.14;100.00
14089;BME280;7120;52.890;6.040;2023-10-31T03:21:41;99548.19;;;11.20;100.00
14089;BME280;7120;52.890;6.040;2023-10-31T03:24:06;99548.97;;;11.08;100.00
14089;BME280;7120;52.890;6.040;2023-10-31T03:26:32;99546.47;;;11.15;100.00
14089;BME280;7120;52.890;6.040;2023-10-31T03:28:57;99555.28;;;11.21;100.00
14089;BME280;7120;52.890;6.040;2023-10-31T03:31:23;99556.28;;;11.16;100.00
14089;BME280;7120;52.890;6.040;2023-10-31T03:33:49;99557.53;;;11.19;100.00
14089;BME280;7120;52.890;6.040;2023-10-31T03:36:15;99567.88;;;11.13;100.00
14089;BME280;7120;52.890;6.040;2023-10-31T03:38:40;99565.63;;;11.15;100.00
14089;BME280;7120;52.890;6.040;2023-10-31T03:41:06;99571.22;;;11.19;100.00
14089;BME280;7120;52.890;6.040;2023-10-31T03:43:31;99578.97;;;11.17;100.00
14089;BME280;7120;52.890;6.040;2023-10-31T03:45:57;99575.03;;;11.06;100.00
14089;BME280;7120;52.890;6.040;2023-10-31T03:48:22;99576.72;;;10.98;100.00
14089;BME280;7120;52.890;6.040;2023-10-31T03:50:47;99590.13;;;10.91;100.00
14089;BME280;7120;52.890;6.040;2023-10-31T03:53:14;99590.19;;;11.03;100.00
14089;BME280;7120;52.890;6.040;2023-10-31T03:55:40;99593.63;;;11.00;100.00
14089;BME280;7120;52.890;6.040;2023-10-31T03:58:05;99601.47;;;11.02;100.00
14089;BME280;7120;52.890;6.040;2023-10-31T04:00:31;99612.28;;;10.98;100.00
14089;BME280;7120;52.890;6.040;2023-10-31T04:02:56;99612.78;;;11.00;100.00
14089;BME280;7120;52.890;6.040;2023-10-31T04:05:22;99618.69;;;11.02;100.00
14089;BME280;7120;52.890;6.040;2023-10-31T04:07:48;99616.88;;;11.06;100.00
14089;BME280;7120;52.890;6.040;2023-10-31T04:10:14;99623.97;;;11.07;100.00
14089;BME280;7120;52.890;6.040;2023-10-31T04:12:39;99631.38;;;11.07;100.00
14089;BME280;7120;52.890;6.040;2023-10-31T04:15:05;99619.06;;;11.13;100.00
14089;BME280;7120;52.890;6.040;2023-10-31T04:17:30;99621.59;;;11.18;100.00
14089;BME280;7120;52.890;6.040;2023-10-31T04:19:56;99618.53;;;11.19;100.00
14089;BME280;7120;52.890;6.040;2023-10-31T04:22:21;99617.72;;;11.19;100.00
14089;BME280;7120;52.890;6.040;2023-10-31T04:24:47;99621.16;;;11.16;100.00
14089;BME280;7120;52.890;6.040;2023-10-31T04:27:12;99626.97;;;11.14;100.00
14089;BME280;7120;52.890;6.040;2023-10-31T04:29:37;99619.88;;;11.13;100.00
14089;BME280;7120;52.890;6.040;2023-10-31T04:32:03;99614.75;;;11.12;100.00
14089;BME280;7120;52.890;6.040;2023-10-31T04:34:28;99626.47;;;11.12;100.00
14089;BME280;7120;52.890;6.040;2023-10-31T04:36:54;99627.09;;;11.18;100.00
14089;BME280;7120;52.890;6.040;2023-10-31T04:39:19;99622.84;;;11.08;100.00
14089;BME280;7120;52.890;6.040;2023-10-31T04:41:44;99625.56;;;11.08;100.00
14089;BME280;7120;52.890;6.040;2023-10-31T04:44:10;99627.63;;;11.11;100.00
14089;BME280;7120;52.890;6.040;2023-10-31T04:46:35;99623.44;;;11.14;100.00
14089;BME280;7120;52.890;6.040;2023-10-31T04:49:00;99634.97;;;10.98;100.00
14089;BME280;7120;52.890;6.040;2023-10-31T04:51:26;99622.34;;;11.06;100.00
14089;BME280;7120;52.890;6.040;2023-10-31T04:53:51;99632.22;;;10.98;100.00
14089;BME280;7120;52.890;6.040;2023-10-31T04:56:17;99633.38;;;10.97;100.00
14089;BME280;7120;52.890;6.040;2023-10-31T04:58:42;99629.19;;;11.00;100.00
14089;BME280;7120;52.890;6.040;2023-10-31T05:01:17;99640.78;;;10.97;100.00
14089;BME280;7120;52.890;6.040;2023-10-31T05:03:42;99637.25;;;10.96;100.00
14089;BME280;7120;52.890;6.040;2023-10-31T05:06:08;99636.59;;;10.99;100.00
14089;BME280;7120;52.890;6.040;2023-10-31T05:08:33;99635.31;;;10.97;100.00
14089;BME280;7120;52.890;6.040;2023-10-31T05:11:01;99628.78;;;10.89;100.00
14089;BME280;7120;52.890;6.040;2023-10-31T05:13:26;99642.72;;;10.96;100.00
14089;BME280;7120;52.890;6.040;2023-10-31T05:15:52;99636.78;;;10.94;100.00
14089;BME280;7120;52.890;6.040;2023-10-31T05:18:17;99645.34;;;10.93;100.00
14089;BME280;7120;52.890;6.040;2023-10-31T05:20:45;99645.78;;;10.95;100.00
14089;BME280;7120;52.890;6.040;2023-10-31T05:23:11;99635.72;;;10.87;100.00
14089;BME280;7120;52.890;6.040;2023-10-31T05:25:36;99644.53;;;10.92;100.00
14089;BME280;7120;52.890;6.040;2023-10-31T05:28:03;99642.44;;;10.89;100.00
14089;BME280;7120;52.890;6.040;2023-10-31T05:30:28;99647.13;;;10.89;100.00
14089;BME280;7120;52.890;6.040;2023-10-31T05:32:53;99660.19;;;10.83;100.00
14089;BME280;7120;52.890;6.040;2023-10-31T05:35:19;99656.91;;;10.90;100.00
14089;BME280;7120;52.890;6.040;2023-10-31T05:37:45;99651.91;;;10.92;100.00
14089;BME280;7120;52.890;6.040;2023-10-31T05:40:12;99648.88;;;10.93;100.00
14089;BME280;7120;52.890;6.040;2023-10-31T05:42:38;99659.19;;;10.88;100.00
14089;BME280;7120;52.890;6.040;2023-10-31T05:45:04;99654.34;;;10.93;100.00
14089;BME280;7120;52.890;6.040;2023-10-31T05:47:29;99656.84;;;10.98;100.00
14089;BME280;7120;52.890;6.040;2023-10-31T05:49:55;99656.66;;;11.04;100.00
14089;BME280;7120;52.890;6.040;2023-10-31T05:52:20;99652.59;;;11.10;100.00
14089;BME280;7120;52.890;6.040;2023-10-31T05:54:45;99659.66;;;11.11;100.00
14089;BME280;7120;52.890;6.040;2023-10-31T05:57:11;99658.13;;;11.01;100.00
14089;BME280;7120;52.890;6.040;2023-10-31T05:59:39;99663.88;;;11.08;100.00
14089;BME280;7120;52.890;6.040;2023-10-31T06:02:07;99670.78;;;11.06;100.00
14089;BME280;7120;52.890;6.040;2023-10-31T06:04:33;99682.22;;;11.08;100.00
14089;BME280;7120;52.890;6.040;2023-10-31T06:06:58;99679.63;;;11.11;100.00
14089;BME280;7120;52.890;6.040;2023-10-31T06:09:24;99686.63;;;11.21;100.00
14089;BME280;7120;52.890;6.040;2023-10-31T06:11:49;99689.28;;;11.30;100.00
14089;BME280;7120;52.890;6.040;2023-10-31T06:14:14;99687.34;;;11.30;100.00
14089;BME280;7120;52.890;6.040;2023-10-31T06:16:40;99688.50;;;11.29;100.00
14089;BME280;7120;52.890;6.040;2023-10-31T06:19:07;99679.34;;;11.25;100.00
14089;BME280;7120;52.890;6.040;2023-10-31T06:21:32;99693.88;;;11.38;100.00
14089;BME280;7120;52.890;6.040;2023-10-31T06:23:57;99695.03;;;11.37;100.00
14089;BME280;7120;52.890;6.040;2023-10-31T06:26:23;99701.16;;;11.34;100.00
14089;BME280;7120;52.890;6.040;2023-10-31T06:28:48;99703.34;;;11.40;100.00
14089;BME280;7120;52.890;6.040;2023-10-31T06:31:13;99700.75;;;11.44;100.00
14089;BME280;7120;52.890;6.040;2023-10-31T06:33:39;99711.03;;;11.47;100.00
14089;BME280;7120;52.890;6.040;2023-10-31T06:36:05;99707.75;;;11.53;100.00
14089;BME280;7120;52.890;6.040;2023-10-31T06:38:31;99713.56;;;11.52;100.00
14089;BME280;7120;52.890;6.040;2023-10-31T06:40:57;99716.09;;;11.57;100.00
14089;BME280;7120;52.890;6.040;2023-10-31T06:43:22;99730.94;;;11.56;100.00
14089;BME280;7120;52.890;6.040;2023-10-31T06:45:47;99724.19;;;11.53;100.00
14089;BME280;7120;52.890;6.040;2023-10-31T06:48:12;99736.06;;;11.58;100.00
14089;BME280;7120;52.890;6.040;2023-10-31T06:50:38;99735.84;;;11.63;100.00
14089;BME280;7120;52.890;6.040;2023-10-31T06:53:03;99728.78;;;11.62;100.00
14089;BME280;7120;52.890;6.040;2023-10-31T06:55:28;99735.44;;;11.73;100.00
14089;BME280;7120;52.890;6.040;2023-10-31T06:57:54;99736.38;;;11.77;100.00
14089;BME280;7120;52.890;6.040;2023-10-31T07:00:19;99735.69;;;11.80;100.00
14089;BME280;7120;52.890;6.040;2023-10-31T07:02:46;99738.31;;;11.76;100.00
14089;BME280;7120;52.890;6.040;2023-10-31T07:05:13;99743.31;;;11.74;100.00
14089;BME280;7120;52.890;6.040;2023-10-31T07:07:39;99753.38;;;11.70;100.00
14089;BME280;7120;52.890;6.040;2023-10-31T07:10:05;99745.16;;;11.70;100.00
14089;BME280;7120;52.890;6.040;2023-10-31T07:12:30;99751.09;;;11.72;100.00
14089;BME280;7120;52.890;6.040;2023-10-31T07:14:56;99748.53;;;11.67;100.00
14089;BME280;7120;52.890;6.040;2023-10-31T07:17:24;99768.06;;;11.66;100.00
14089;BME280;7120;52.890;6.040;2023-10-31T07:19:49;99761.25;;;11.72;100.00
14089;BME280;7120;52.890;6.040;2023-10-31T07:22:14;99764.78;;;11.72;100.00
14089;BME280;7120;52.890;6.040;2023-10-31T07:24:40;99769.25;;;11.77;100.00
14089;BME280;7120;52.890;6.040;2023-10-31T07:27:06;99773.00;;;11.72;100.00
14089;BME280;7120;52.890;6.040;2023-10-31T07:29:31;99779.47;;;11.68;100.00
14089;BME280;7120;52.890;6.040;2023-10-31T07:31:57;99781.31;;;11.76;100.00
14089;BME280;7120;52.890;6.040;2023-10-31T07:34:22;99792.97;;;11.73;100.00
14089;BME280;7120;52.890;6.040;2023-10-31T07:36:47;99790.69;;;11.75;100.00
14089;BME280;7120;52.890;6.040;2023-10-31T07:39:13;99789.53;;;11.76;100.00
14089;BME280;7120;52.890;6.040;2023-10-31T07:41:39;99798.41;;;11.81;100.00
14089;BME280;7120;52.890;6.040;2023-10-31T07:44:05;99799.84;;;11.79;100.00
14089;BME280;7120;52.890;6.040;2023-10-31T07:46:31;99802.72;;;11.82;100.00
14089;BME280;7120;52.890;6.040;2023-10-31T07:48:56;99800.00;;;11.82;100.00
14089;BME280;7120;52.890;6.040;2023-10-31T07:51:22;99800.34;;;11.81;100.00
14089;BME280;7120;52.890;6.040;2023-10-31T07:53:47;99804.34;;;11.83;100.00
14089;BME280;7120;52.890;6.040;2023-10-31T07:56:19;99802.72;;;11.82;100.00
14089;BME280;7120;52.890;6.040;2023-10-31T07:58:48;99812.56;;;11.83;100.00
14089;BME280;7120;52.890;6.040;2023-10-31T08:01:15;99812.94;;;11.73;100.00
14089;BME280;7120;52.890;6.040;2023-10-31T08:03:41;99816.28;;;11.79;100.00
14089;BME280;7120;52.890;6.040;2023-10-31T08:06:08;99820.03;;;11.74;100.00
14089;BME280;7120;52.890;6.040;2023-10-31T08:08:33;99824.09;;;11.68;100.00
14089;BME280;7120;52.890;6.040;2023-10-31T08:10:59;99828.84;;;11.80;100.00
14089;BME280;7120;52.890;6.040;2023-10-31T08:13:25;99829.22;;;11.70;100.00
14089;BME280;7120;52.890;6.040;2023-10-31T08:15:50;99831.38;;;11.64;100.00
14089;BME280;7120;52.890;6.040;2023-10-31T08:18:15;99829.56;;;11.68;100.00
14089;BME280;7120;52.890;6.040;2023-10-31T08:20:41;99835.81;;;11.77;100.00
14089;BME280;7120;52.890;6.040;2023-10-31T08:23:08;99834.41;;;11.92;100.00
14089;BME280;7120;52.890;6.040;2023-10-31T08:25:33;99845.50;;;11.96;100.00
14089;BME280;7120;52.890;6.040;2023-10-31T08:28:01;99838.72;;;12.14;100.00
14089;BME280;7120;52.890;6.040;2023-10-31T08:30:27;99837.03;;;12.22;100.00
14089;BME280;7120;52.890;6.040;2023-10-31T08:32:52;99836.84;;;12.39;100.00
14089;BME280;7120;52.890;6.040;2023-10-31T08:35:19;99842.06;;;12.65;100.00
14089;BME280;7120;52.890;6.040;2023-10-31T08:37:44;99843.25;;;12.76;100.00
14089;BME280;7120;52.890;6.040;2023-10-31T08:40:09;99849.97;;;13.03;100.00
14089;BME280;7120;52.890;6.040;2023-10-31T08:42:35;99859.94;;;12.96;100.00
14089;BME280;7120;52.890;6.040;2023-10-31T08:45:01;99857.88;;;13.17;100.00
14089;BME280;7120;52.890;6.040;2023-10-31T08:47:26;99863.19;;;13.34;100.00
14089;BME280;7120;52.890;6.040;2023-10-31T08:49:53;99875.28;;;13.45;100.00
14089;BME280;7120;52.890;6.040;2023-10-31T08:52:18;99877.09;;;13.66;100.00
14089;BME280;7120;52.890;6.040;2023-10-31T08:54:44;99880.75;;;13.82;100.00
14089;BME280;7120;52.890;6.040;2023-10-31T08:57:09;99888.50;;;14.20;100.00
14089;BME280;7120;52.890;6.040;2023-10-31T08:59:34;99892.66;;;14.42;100.00
14089;BME280;7120;52.890;6.040;2023-10-31T09:02:01;99894.41;;;14.35;100.00
14089;BME280;7120;52.890;6.040;2023-10-31T09:04:27;99890.34;;;14.44;100.00
14089;BME280;7120;52.890;6.040;2023-10-31T09:06:52;99893.44;;;14.55;100.00
14089;BME280;7120;52.890;6.040;2023-10-31T09:09:17;99895.72;;;14.25;100.00
14089;BME280;7120;52.890;6.040;2023-10-31T09:11:43;99898.59;;;14.16;100.00
14089;BME280;7120;52.890;6.040;2023-10-31T09:14:08;99897.88;;;14.32;100.00
14089;BME280;7120;52.890;6.040;2023-10-31T09:16:33;99904.69;;;14.50;100.00
14089;BME280;7120;52.890;6.040;2023-10-31T09:18:59;99912.03;;;14.74;100.00
14089;BME280;7120;52.890;6.040;2023-10-31T09:21:27;99899.81;;;14.87;100.00
14089;BME280;7120;52.890;6.040;2023-10-31T09:23:52;99918.78;;;14.92;100.00
14089;BME280;7120;52.890;6.040;2023-10-31T09:26:17;99919.88;;;14.88;100.00
14089;BME280;7120;52.890;6.040;2023-10-31T09:28:43;99933.72;;;14.35;100.00
14089;BME280;7120;52.890;6.040;2023-10-31T09:31:16;99934.34;;;13.64;100.00
14089;BME280;7120;52.890;6.040;2023-10-31T09:33:41;99942.28;;;13.08;100.00
14089;BME280;7120;52.890;6.040;2023-10-31T09:36:13;99953.44;;;12.78;100.00
14089;BME280;7120;52.890;6.040;2023-10-31T09:38:39;99950.03;;;12.48;100.00
14089;BME280;7120;52.890;6.040;2023-10-31T09:41:05;99960.66;;;12.29;100.00
14089;BME280;7120;52.890;6.040;2023-10-31T09:43:31;99956.69;;;12.38;100.00
14089;BME280;7120;52.890;6.040;2023-10-31T09:45:57;99964.38;;;12.45;100.00
14089;BME280;7120;52.890;6.040;2023-10-31T09:48:23;99975.06;;;12.59;100.00
14089;BME280;7120;52.890;6.040;2023-10-31T09:50:49;99973.38;;;12.67;100.00
14089;BME280;7120;52.890;6.040;2023-10-31T09:53:16;99981.47;;;12.84;100.00
14089;BME280;7120;52.890;6.040;2023-10-31T09:55:44;99982.72;;;12.86;100.00
14089;BME280;7120;52.890;6.040;2023-10-31T09:58:10;99991.66;;;12.96;100.00
14089;BME280;7120;52.890;6.040;2023-10-31T10:00:35;99991.34;;;13.09;100.00
14089;BME280;7120;52.890;6.040;2023-10-31T10:03:03;99986.78;;;13.01;100.00
14089;BME280;7120;52.890;6.040;2023-10-31T10:05:31;99994.59;;;12.78;100.00
14089;BME280;7120;52.890;6.040;2023-10-31T10:07:57;99994.97;;;12.56;100.00
14089;BME280;7120;52.890;6.040;2023-10-31T10:10:23;100003.66;;;12.58;100.00
14089;BME280;7120;52.890;6.040;2023-10-31T10:12:51;100008.97;;;12.75;100.00
14089;BME280;7120;52.890;6.040;2023-10-31T10:15:16;100010.91;;;12.75;100.00
14089;BME280;7120;52.890;6.040;2023-10-31T10:17:48;100012.19;;;12.77;100.00
14089;BME280;7120;52.890;6.040;2023-10-31T10:20:14;100018.50;;;12.78;100.00
14089;BME280;7120;52.890;6.040;2023-10-31T10:22:40;100022.38;;;12.77;100.00
14089;BME280;7120;52.890;6.040;2023-10-31T10:25:14;100022.75;;;12.87;100.00
14089;BME280;7120;52.890;6.040;2023-10-31T10:27:46;100028.50;;;12.95;100.00
14089;BME280;7120;52.890;6.040;2023-10-31T10:30:13;100024.72;;;13.20;100.00
14089;BME280;7120;52.890;6.040;2023-10-31T10:32:39;100033.94;;;13.49;100.00
14089;BME280;7120;52.890;6.040;2023-10-31T10:35:05;100033.09;;;13.36;100.00
14089;BME280;7120;52.890;6.040;2023-10-31T10:37:30;100031.84;;;13.33;100.00
14089;BME280;7120;52.890;6.040;2023-10-31T10:39:57;100028.56;;;13.19;100.00
14089;BME280;7120;52.890;6.040;2023-10-31T10:42:46;100027.81;;;13.31;100.00
14089;BME280;7120;52.890;6.040;2023-10-31T10:45:14;100026.97;;;13.18;100.00
14089;BME280;7120;52.890;6.040;2023-10-31T10:47:46;100030.28;;;13.11;100.00
14089;BME280;7120;52.890;6.040;2023-10-31T10:50:12;100031.81;;;13.21;100.00
14089;BME280;7120;52.890;6.040;2023-10-31T10:52:44;100035.50;;;13.04;100.00
14089;BME280;7120;52.890;6.040;2023-10-31T10:55:13;100036.81;;;13.19;100.00
14089;BME280;7120;52.890;6.040;2023-10-31T11:00:49;100044.28;;;13.31;100.00
14089;BME280;7120;52.890;6.040;2023-10-31T11:03:16;100054.06;;;12.86;100.00
14089;BME280;7120;52.890;6.040;2023-10-31T11:05:42;100050.66;;;12.89;100.00
14089;BME280;7120;52.890;6.040;2023-10-31T11:08:08;100059.91;;;12.85;100.00
14089;BME280;7120;52.890;6.040;2023-10-31T11:10:34;100053.72;;;12.88;100.00
14089;BME280;7120;52.890;6.040;2023-10-31T11:13:00;100059.28;;;13.00;100.00
14089;BME280;7120;52.890;6.040;2023-10-31T11:15:27;100057.59;;;13.08;100.00
14089;BME280;7120;52.890;6.040;2023-10-31T11:17:53;100057.38;;;13.13;100.00
14089;BME280;7120;52.890;6.040;2023-10-31T11:20:20;100062.13;;;13.25;100.00
14089;BME280;7120;52.890;6.040;2023-10-31T11:22:46;100065.69;;;13.25;100.00
14089;BME280;7120;52.890;6.040;2023-10-31T11:25:23;100068.69;;;13.44;100.00
14089;BME280;7120;52.890;6.040;2023-10-31T11:27:52;100069.56;;;13.82;100.00
14089;BME280;7120;52.890;6.040;2023-10-31T11:30:28;100072.66;;;14.17;100.00
14089;BME280;7120;52.890;6.040;2023-10-31T11:33:00;100075.41;;;14.17;100.00
14089;BME280;7120;52.890;6.040;2023-10-31T11:35:29;100078.94;;;14.42;100.00
14089;BME280;7120;52.890;6.040;2023-10-31T11:38:06;100077.78;;;14.67;100.00
14089;BME280;7120;52.890;6.040;2023-10-31T11:40:59;100080.19;;;14.56;100.00
14089;BME280;7120;52.890;6.040;2023-10-31T11:43:25;100077.47;;;14.84;100.00
14089;BME280;7120;52.890;6.040;2023-10-31T11:45:51;100074.56;;;14.93;100.00
14089;BME280;7120;52.890;6.040;2023-10-31T11:48:17;100086.53;;;14.85;100.00
14089;BME280;7120;52.890;6.040;2023-10-31T11:50:42;100079.22;;;14.77;100.00
14089;BME280;7120;52.890;6.040;2023-10-31T11:55:45;100085.22;;;14.67;100.00
14089;BME280;7120;52.890;6.040;2023-10-31T11:58:22;100092.25;;;14.52;100.00
14089;BME280;7120;52.890;6.040;2023-10-31T12:00:56;100089.13;;;14.41;100.00
14089;BME280;7120;52.890;6.040;2023-10-31T12:03:25;100094.53;;;14.38;100.00
14089;BME280;7120;52.890;6.040;2023-10-31T12:05:58;100094.63;;;14.29;100.00
14089;BME280;7120;52.890;6.040;2023-10-31T12:08:28;100099.34;;;14.16;100.00
14089;BME280;7120;52.890;6.040;2023-10-31T12:11:11;100109.66;;;14.19;100.00
14089;BME280;7120;52.890;6.040;2023-10-31T12:13:50;100108.97;;;14.22;100.00
14089;BME280;7120;52.890;6.040;2023-10-31T12:16:16;100115.28;;;14.47;100.00
14089;BME280;7120;52.890;6.040;2023-10-31T12:18:42;100112.75;;;14.67;100.00
14089;BME280;7120;52.890;6.040;2023-10-31T12:21:08;100115.28;;;14.11;100.00
14089;BME280;7120;52.890;6.040;2023-10-31T12:23:34;100124.78;;;13.89;100.00
14089;BME280;7120;52.890;6.040;2023-10-31T12:25:59;100126.91;;;13.26;100.00
14089;BME280;7120;52.890;6.040;2023-10-31T12:28:25;100130.44;;;12.84;100.00
14089;BME280;7120;52.890;6.040;2023-10-31T12:30:53;100134.13;;;12.88;100.00
14089;BME280;7120;52.890;6.040;2023-10-31T12:33:20;100136.66;;;13.14;100.00
14089;BME280;7120;52.890;6.040;2023-10-31T12:35:48;100144.44;;;13.33;100.00
14089;BME280;7120;52.890;6.040;2023-10-31T12:38:14;100138.94;;;13.33;100.00
14089;BME280;7120;52.890;6.040;2023-10-31T12:40:40;100148.91;;;13.38;100.00
14089;BME280;7120;52.890;6.040;2023-10-31T12:43:06;100145.84;;;13.39;100.00
14089;BME280;7120;52.890;6.040;2023-10-31T12:45:32;100147.72;;;13.60;100.00
14089;BME280;7120;52.890;6.040;2023-10-31T12:48:05;100151.16;;;13.57;100.00
14089;BME280;7120;52.890;6.040;2023-10-31T12:50:32;100147.97;;;13.67;100.00
14089;BME280;7120;52.890;6.040;2023-10-31T12:52:58;100146.31;;;13.41;100.00
14089;BME280;7120;52.890;6.040;2023-10-31T12:55:29;100150.34;;;13.23;100.00
14089;BME280;7120;52.890;6.040;2023-10-31T12:57:56;100151.06;;;13.11;100.00